PWSweather.com
Personal Weather Stations
Station Observations

AwhituWaiuku, CA 268400

Lat: -37.058, Lon: -174.6346

Elevation: 250

Station Type: Personal

http://www.weather-display.com/windy/gb/grahamsbeach.htm

Latest ConditionsUpdated 9:01:13 PM GMT-12:48 Wednesday, Aug 27, 2014
Currently Today's Max Today's Min Today's Average
Temperature 49.7°F9.8°C 57.3°F14.1°C 45.2°F7.3°C 50.9°F10.5°C
Dew Point 49.2°F9.6°C 53.1°F11.7°C 44.7°F7.1°C 49.2°F9.6°C
Winds 5.3 mph ESE8.5 kmh ESE 13.8 mph SE22.2 kmh SE - 7.6 mph 12.2 kmh
Wind Gusts 11.0 mph17.7 kmh 18.0 mph29.0 kmh - -
Humidity 98% 98% 79% 94%
Pressure 30.44 in1030.8 mb 30.47 in1031.8 mb 30.39 in1029.1 mb -
Hour Temp Dew Point Humidity Winds Wind Gusts Pressure Precip Precip Rate Daily Precip Total
09:01 PM 49.7°F9.8°C 49.2°F9.6°C 98% 5.3 mph ESE8.5 kmh ESE 11.0 mph17.7 kmh 30.44 in1030.8 mb 0.00 in0.0 mm 0.00 in/hr0.0 mm/hr 0.00 in0.0 mm
08:30 PM 49.3°F9.6°C 48.8°F9.3°C 98% 5.9 mph ESE9.5 kmh ESE 11.0 mph17.7 kmh 30.44 in1030.8 mb 0.00 in0.0 mm 0.00 in/hr0.0 mm/hr 0.00 in0.0 mm
08:01 PM 49.5°F9.7°C 49.0°F9.4°C 98% 5.9 mph E9.5 kmh E 9.0 mph14.5 kmh 30.44 in1030.8 mb 0.00 in0.0 mm 0.00 in/hr0.0 mm/hr 0.00 in0.0 mm
07:30 PM 49.9°F9.9°C 49.4°F9.7°C 98% 7.6 mph ESE12.2 kmh ESE 9.0 mph14.5 kmh 30.43 in1030.5 mb 0.00 in0.0 mm 0.00 in/hr0.0 mm/hr 0.00 in0.0 mm
07:01 PM 50.5°F10.3°C 50.0°F10.0°C 98% 5.5 mph E8.9 kmh E 8.0 mph12.9 kmh 30.43 in1030.5 mb 0.00 in0.0 mm 0.00 in/hr0.0 mm/hr 0.00 in0.0 mm
06:30 PM 51.8°F11.0°C 51.3°F10.7°C 98% 7.7 mph ESE12.4 kmh ESE 13.0 mph20.9 kmh 30.43 in1030.5 mb 0.00 in0.0 mm 0.00 in/hr0.0 mm/hr 0.00 in0.0 mm
06:01 PM 52.8°F11.6°C 52.2°F11.2°C 98% 7.0 mph ESE11.3 kmh ESE 9.0 mph14.5 kmh 30.41 in1029.8 mb 0.00 in0.0 mm 0.00 in/hr0.0 mm/hr 0.00 in0.0 mm
05:30 PM 53.5°F11.9°C 51.8°F11.0°C 94% 8.2 mph ESE13.2 kmh ESE 13.0 mph20.9 kmh 30.41 in1029.8 mb 0.00 in0.0 mm 0.00 in/hr0.0 mm/hr 0.00 in0.0 mm
05:01 PM 54.3°F12.4°C 51.4°F10.8°C 90% 6.7 mph ESE10.8 kmh ESE 9.0 mph14.5 kmh 30.40 in1029.5 mb 0.00 in0.0 mm 0.00 in/hr0.0 mm/hr 0.00 in0.0 mm
04:30 PM 54.9°F12.7°C 50.8°F10.4°C 86% 12.6 mph ESE20.3 kmh ESE 15.0 mph24.1 kmh 30.39 in1029.1 mb 0.00 in0.0 mm 0.00 in/hr0.0 mm/hr 0.00 in0.0 mm
04:01 PM 56.3°F13.5°C 50.5°F10.3°C 81% 9.0 mph E14.5 kmh E 14.0 mph22.5 kmh 30.39 in1029.1 mb 0.00 in0.0 mm 0.00 in/hr0.0 mm/hr 0.00 in0.0 mm
03:30 PM 56.7°F13.7°C 51.3°F10.7°C 82% 8.6 mph NE13.8 kmh NE 13.0 mph20.9 kmh 30.39 in1029.1 mb 0.00 in0.0 mm 0.00 in/hr0.0 mm/hr 0.00 in0.0 mm
03:01 PM 56.5°F13.6°C 50.1°F10.1°C 79% 10.7 mph E17.2 kmh E 16.0 mph25.7 kmh 30.40 in1029.5 mb 0.00 in0.0 mm 0.00 in/hr0.0 mm/hr 0.00 in0.0 mm
02:30 PM 56.3°F13.5°C 53.1°F11.7°C 89% 7.9 mph SE12.7 kmh SE 11.0 mph17.7 kmh 30.40 in1029.5 mb 0.00 in0.0 mm 0.00 in/hr0.0 mm/hr 0.00 in0.0 mm
02:01 PM 56.9°F13.8°C 51.1°F10.6°C 81% 12.0 mph E19.3 kmh E 14.0 mph22.5 kmh 30.40 in1029.5 mb 0.00 in0.0 mm 0.00 in/hr0.0 mm/hr 0.00 in0.0 mm
01:01 PM 56.9°F13.8°C 52.5°F11.4°C 85% 11.2 mph SE18.0 kmh SE 16.0 mph25.7 kmh 30.42 in1030.1 mb 0.00 in0.0 mm 0.00 in/hr0.0 mm/hr 0.00 in0.0 mm
12:30 PM 57.3°F14.1°C 52.9°F11.6°C 85% 11.7 mph E18.8 kmh E 15.0 mph24.1 kmh 30.43 in1030.5 mb 0.00 in0.0 mm 0.00 in/hr0.0 mm/hr 0.00 in0.0 mm
12:01 PM 56.6°F13.7°C 52.8°F11.6°C 87% 13.3 mph E21.4 kmh E 18.0 mph29.0 kmh 30.44 in1030.8 mb 0.00 in0.0 mm 0.00 in/hr0.0 mm/hr 0.00 in0.0 mm
11:30 AM 56.0°F13.3°C 52.8°F11.6°C 89% 13.8 mph SE22.2 kmh SE 18.0 mph29.0 kmh 30.45 in1031.2 mb 0.00 in0.0 mm 0.00 in/hr0.0 mm/hr 0.00 in0.0 mm
11:01 AM 55.4°F13.0°C 52.5°F11.4°C 90% 12.7 mph E20.4 kmh E 17.0 mph27.4 kmh 30.45 in1031.2 mb 0.00 in0.0 mm 0.00 in/hr0.0 mm/hr 0.00 in0.0 mm
10:01 AM 53.3°F11.8°C 52.2°F11.2°C 96% 11.3 mph ESE18.2 kmh ESE 18.0 mph29.0 kmh 30.47 in1031.8 mb 0.00 in0.0 mm 0.00 in/hr0.0 mm/hr 0.00 in0.0 mm
09:30 AM 51.2°F10.7°C 50.7°F10.4°C 98% 12.3 mph SE19.8 kmh SE 16.0 mph25.7 kmh 30.46 in1031.5 mb 0.00 in0.0 mm 0.00 in/hr0.0 mm/hr 0.00 in0.0 mm
09:01 AM 50.3°F10.2°C 49.8°F9.9°C 98% 8.1 mph E13.0 kmh E 13.0 mph20.9 kmh 30.46 in1031.5 mb 0.00 in0.0 mm 0.00 in/hr0.0 mm/hr 0.00 in0.0 mm
08:01 AM 48.3°F9.1°C 47.7°F8.7°C 98% 8.8 mph SE14.2 kmh SE 13.0 mph20.9 kmh 30.45 in1031.2 mb 0.00 in0.0 mm 0.00 in/hr0.0 mm/hr 0.00 in0.0 mm
07:30 AM 47.4°F8.6°C 46.8°F8.2°C 98% 9.2 mph ESE14.8 kmh ESE 13.0 mph20.9 kmh 30.44 in1030.8 mb 0.00 in0.0 mm 0.00 in/hr0.0 mm/hr 0.00 in0.0 mm
07:01 AM 47.1°F8.4°C 46.5°F8.1°C 98% 8.3 mph E13.4 kmh E 11.0 mph17.7 kmh 30.44 in1030.8 mb 0.00 in0.0 mm 0.00 in/hr0.0 mm/hr 0.00 in0.0 mm
06:30 AM 46.9°F8.3°C 46.4°F8.0°C 98% 7.4 mph E11.9 kmh E 10.0 mph16.1 kmh 30.44 in1030.8 mb 0.00 in0.0 mm 0.00 in/hr0.0 mm/hr 0.00 in0.0 mm
06:01 AM 47.1°F8.4°C 46.6°F8.1°C 98% 5.9 mph SE9.5 kmh SE 9.0 mph14.5 kmh 30.44 in1030.8 mb 0.00 in0.0 mm 0.00 in/hr0.0 mm/hr 0.00 in0.0 mm
05:30 AM 47.7°F8.7°C 47.2°F8.4°C 98% 5.5 mph ESE8.9 kmh ESE 10.0 mph16.1 kmh 30.43 in1030.5 mb 0.00 in0.0 mm 0.00 in/hr0.0 mm/hr 0.00 in0.0 mm
05:01 AM 47.4°F8.6°C 46.9°F8.3°C 98% 4.5 mph SE7.2 kmh SE 9.0 mph14.5 kmh 30.44 in1030.8 mb 0.00 in0.0 mm 0.00 in/hr0.0 mm/hr 0.00 in0.0 mm
04:30 AM 47.4°F8.6°C 46.9°F8.3°C 98% 3.0 mph ESE4.8 kmh ESE 9.0 mph14.5 kmh 30.44 in1030.8 mb 0.00 in0.0 mm 0.00 in/hr0.0 mm/hr 0.00 in0.0 mm
04:01 AM 47.7°F8.7°C 47.2°F8.4°C 98% 4.4 mph SE7.1 kmh SE 8.0 mph12.9 kmh 30.44 in1030.8 mb 0.00 in0.0 mm 0.00 in/hr0.0 mm/hr 0.00 in0.0 mm
03:01 AM 46.6°F8.1°C 46.1°F7.8°C 98% 1.6 mph SE2.6 kmh SE 6.0 mph9.7 kmh 30.44 in1030.8 mb 0.00 in0.0 mm 0.00 in/hr0.0 mm/hr 0.00 in0.0 mm
02:30 AM 46.3°F7.9°C 45.8°F7.7°C 98% 4.5 mph E7.2 kmh E 9.0 mph14.5 kmh 30.45 in1031.2 mb 0.00 in0.0 mm 0.00 in/hr0.0 mm/hr 0.00 in0.0 mm
02:01 AM 46.4°F8.0°C 45.9°F7.7°C 98% 6.0 mph E9.7 kmh E 8.0 mph12.9 kmh 30.44 in1030.8 mb 0.00 in0.0 mm 0.00 in/hr0.0 mm/hr 0.00 in0.0 mm
01:30 AM 46.9°F8.3°C 46.4°F8.0°C 98% 3.6 mph ESE5.8 kmh ESE 6.0 mph9.7 kmh 30.45 in1031.2 mb 0.00 in0.0 mm 0.00 in/hr0.0 mm/hr 0.00 in0.0 mm
01:01 AM 46.2°F7.9°C 45.7°F7.6°C 98% 1.5 mph E2.4 kmh E 4.0 mph6.4 kmh 30.45 in1031.2 mb 0.00 in0.0 mm 0.00 in/hr0.0 mm/hr 0.00 in0.0 mm
12:30 AM 45.2°F7.3°C 44.7°F7.1°C 98% 3.7 mph E6.0 kmh E 6.0 mph9.7 kmh 30.45 in1031.2 mb 0.00 in0.0 mm 0.00 in/hr0.0 mm/hr 0.00 in0.0 mm
12:01 AM 45.3°F7.4°C 44.8°F7.1°C 98% 2.1 mph ESE3.4 kmh ESE 4.0 mph6.4 kmh 30.46 in1031.5 mb 0.00 in0.0 mm 0.00 in/hr0.0 mm/hr 0.00 in0.0 mm